sensor_id;sensor_type;location;lat;lon;timestamp;P1;durP1;ratioP1;P2;durP2;ratioP2
56255;SDS011;57229;51.432;-2.598;2023-01-01T00:01:23;3.33;;;2.47;;
56255;SDS011;57229;51.432;-2.598;2023-01-01T00:17:35;5.65;;;2.95;;
56255;SDS011;57229;51.432;-2.598;2023-01-01T00:20:01;10.75;;;3.00;;
56255;SDS011;57229;51.432;-2.598;2023-01-01T00:22:27;4.70;;;3.03;;
56255;SDS011;57229;51.432;-2.598;2023-01-01T00:24:52;6.18;;;3.70;;
56255;SDS011;57229;51.432;-2.598;2023-01-01T00:27:18;4.78;;;3.28;;
56255;SDS011;57229;51.432;-2.598;2023-01-01T00:29:43;4.38;;;3.22;;
56255;SDS011;57229;51.432;-2.598;2023-01-01T00:32:09;4.82;;;3.30;;
56255;SDS011;57229;51.432;-2.598;2023-01-01T00:34:36;5.25;;;3.45;;
56255;SDS011;57229;51.432;-2.598;2023-01-01T00:37:02;8.65;;;3.70;;
56255;SDS011;57229;51.432;-2.598;2023-01-01T00:39:28;6.82;;;3.58;;
56255;SDS011;57229;51.432;-2.598;2023-01-01T00:41:54;6.95;;;3.50;;
56255;SDS011;57229;51.432;-2.598;2023-01-01T00:44:19;6.43;;;3.63;;
56255;SDS011;57229;51.432;-2.598;2023-01-01T00:46:45;8.68;;;3.50;;
56255;SDS011;57229;51.432;-2.598;2023-01-01T00:49:11;5.22;;;3.60;;
56255;SDS011;57229;51.432;-2.598;2023-01-01T00:51:36;8.57;;;3.78;;
56255;SDS011;57229;51.432;-2.598;2023-01-01T00:54:02;7.70;;;3.60;;
56255;SDS011;57229;51.432;-2.598;2023-01-01T00:56:28;7.05;;;3.70;;
56255;SDS011;57229;51.432;-2.598;2023-01-01T00:58:53;6.18;;;3.72;;
56255;SDS011;57229;51.432;-2.598;2023-01-01T01:01:19;6.55;;;3.70;;
56255;SDS011;57229;51.432;-2.598;2023-01-01T01:03:45;7.70;;;3.55;;
56255;SDS011;57229;51.432;-2.598;2023-01-01T01:06:11;5.53;;;3.58;;
56255;SDS011;57229;51.432;-2.598;2023-01-01T01:08:39;4.75;;;3.30;;
56255;SDS011;57229;51.432;-2.598;2023-01-01T01:13:41;6.07;;;3.30;;
56255;SDS011;57229;51.432;-2.598;2023-01-01T01:16:13;7.10;;;3.88;;
56255;SDS011;57229;51.432;-2.598;2023-01-01T01:18:44;6.85;;;3.50;;
56255;SDS011;57229;51.432;-2.598;2023-01-01T01:21:22;8.65;;;3.70;;
56255;SDS011;57229;51.432;-2.598;2023-01-01T01:23:52;7.78;;;3.67;;
56255;SDS011;57229;51.432;-2.598;2023-01-01T01:26:22;6.60;;;3.65;;
56255;SDS011;57229;51.432;-2.598;2023-01-01T01:28:49;5.03;;;3.15;;
56255;SDS011;57229;51.432;-2.598;2023-01-01T01:31:16;4.80;;;3.35;;
56255;SDS011;57229;51.432;-2.598;2023-01-01T01:33:43;8.10;;;3.53;;
56255;SDS011;57229;51.432;-2.598;2023-01-01T01:39:23;3.60;;;2.95;;
56255;SDS011;57229;51.432;-2.598;2023-01-01T01:41:49;6.32;;;3.65;;
56255;SDS011;57229;51.432;-2.598;2023-01-01T01:47:13;9.20;;;3.92;;
56255;SDS011;57229;51.432;-2.598;2023-01-01T01:49:41;6.25;;;3.40;;
56255;SDS011;57229;51.432;-2.598;2023-01-01T01:52:47;7.18;;;3.70;;
56255;SDS011;57229;51.432;-2.598;2023-01-01T01:55:06;5.43;;;3.20;;
56255;SDS011;57229;51.432;-2.598;2023-01-01T01:57:39;8.00;;;3.15;;
56255;SDS011;57229;51.432;-2.598;2023-01-01T02:00:06;6.25;;;3.15;;
56255;SDS011;57229;51.432;-2.598;2023-01-01T02:05:24;6.85;;;2.95;;
56255;SDS011;57229;51.432;-2.598;2023-01-01T02:07:50;6.53;;;3.10;;
56255;SDS011;57229;51.432;-2.598;2023-01-01T02:10:17;6.05;;;3.05;;
56255;SDS011;57229;51.432;-2.598;2023-01-01T02:12:42;7.50;;;3.42;;
56255;SDS011;57229;51.432;-2.598;2023-01-01T02:15:08;6.93;;;3.30;;
56255;SDS011;57229;51.432;-2.598;2023-01-01T02:17:38;5.85;;;3.38;;
56255;SDS011;57229;51.432;-2.598;2023-01-01T02:23:08;3.47;;;2.85;;
56255;SDS011;57229;51.432;-2.598;2023-01-01T02:25:47;6.25;;;3.03;;
56255;SDS011;57229;51.432;-2.598;2023-01-01T02:28:36;4.55;;;3.20;;
56255;SDS011;57229;51.432;-2.598;2023-01-01T02:31:05;5.78;;;2.95;;
56255;SDS011;57229;51.432;-2.598;2023-01-01T02:33:32;5.90;;;3.50;;
56255;SDS011;57229;51.432;-2.598;2023-01-01T02:36:00;6.03;;;3.05;;
56255;SDS011;57229;51.432;-2.598;2023-01-01T02:41:01;4.20;;;3.00;;
56255;SDS011;57229;51.432;-2.598;2023-01-01T02:43:30;4.07;;;2.90;;
56255;SDS011;57229;51.432;-2.598;2023-01-01T02:45:56;6.82;;;3.00;;
56255;SDS011;57229;51.432;-2.598;2023-01-01T02:56:40;8.70;;;3.40;;
56255;SDS011;57229;51.432;-2.598;2023-01-01T02:59:25;5.43;;;3.00;;
56255;SDS011;57229;51.432;-2.598;2023-01-01T03:02:21;4.57;;;3.20;;
56255;SDS011;57229;51.432;-2.598;2023-01-01T03:10:23;4.82;;;2.83;;
56255;SDS011;57229;51.432;-2.598;2023-01-01T03:13:15;6.80;;;3.10;;
56255;SDS011;57229;51.432;-2.598;2023-01-01T03:16:03;4.25;;;2.85;;
56255;SDS011;57229;51.432;-2.598;2023-01-01T03:21:15;7.88;;;3.33;;
56255;SDS011;57229;51.432;-2.598;2023-01-01T03:23:46;3.92;;;2.78;;
56255;SDS011;57229;51.432;-2.598;2023-01-01T03:26:18;7.55;;;3.30;;
56255;SDS011;57229;51.432;-2.598;2023-01-01T03:28:48;7.50;;;3.22;;
56255;SDS011;57229;51.432;-2.598;2023-01-01T03:31:20;5.60;;;2.80;;
56255;SDS011;57229;51.432;-2.598;2023-01-01T03:33:51;7.72;;;3.20;;
56255;SDS011;57229;51.432;-2.598;2023-01-01T03:36:42;7.35;;;2.92;;
56255;SDS011;57229;51.432;-2.598;2023-01-01T03:39:13;6.10;;;2.92;;
56255;SDS011;57229;51.432;-2.598;2023-01-01T03:41:57;3.60;;;2.70;;
56255;SDS011;57229;51.432;-2.598;2023-01-01T03:44:46;6.25;;;2.83;;
56255;SDS011;57229;51.432;-2.598;2023-01-01T03:47:16;8.40;;;2.85;;
56255;SDS011;57229;51.432;-2.598;2023-01-01T03:49:42;8.43;;;2.83;;
56255;SDS011;57229;51.432;-2.598;2023-01-01T03:55:10;5.15;;;3.08;;
56255;SDS011;57229;51.432;-2.598;2023-01-01T03:58:02;7.85;;;3.08;;
56255;SDS011;57229;51.432;-2.598;2023-01-01T04:00:48;4.45;;;2.65;;
56255;SDS011;57229;51.432;-2.598;2023-01-01T04:03:24;5.07;;;2.45;;
56255;SDS011;57229;51.432;-2.598;2023-01-01T04:05:52;7.07;;;2.78;;
56255;SDS011;57229;51.432;-2.598;2023-01-01T04:08:17;5.88;;;3.00;;
56255;SDS011;57229;51.432;-2.598;2023-01-01T04:10:44;9.50;;;3.00;;
56255;SDS011;57229;51.432;-2.598;2023-01-01T04:13:12;6.13;;;2.85;;
56255;SDS011;57229;51.432;-2.598;2023-01-01T04:18:47;5.60;;;2.70;;
56255;SDS011;57229;51.432;-2.598;2023-01-01T04:21:13;8.05;;;2.85;;
56255;SDS011;57229;51.432;-2.598;2023-01-01T04:23:39;5.80;;;2.83;;
56255;SDS011;57229;51.432;-2.598;2023-01-01T04:26:04;4.85;;;2.90;;
56255;SDS011;57229;51.432;-2.598;2023-01-01T04:28:30;7.25;;;2.83;;
56255;SDS011;57229;51.432;-2.598;2023-01-01T04:30:59;10.25;;;3.05;;
56255;SDS011;57229;51.432;-2.598;2023-01-01T04:33:38;7.28;;;2.90;;
56255;SDS011;57229;51.432;-2.598;2023-01-01T04:36:05;9.10;;;3.05;;
56255;SDS011;57229;51.432;-2.598;2023-01-01T04:38:32;7.65;;;3.00;;
56255;SDS011;57229;51.432;-2.598;2023-01-01T04:40:58;7.90;;;2.83;;
56255;SDS011;57229;51.432;-2.598;2023-01-01T04:43:25;5.93;;;2.70;;
56255;SDS011;57229;51.432;-2.598;2023-01-01T04:45:55;9.23;;;3.05;;
56255;SDS011;57229;51.432;-2.598;2023-01-01T04:48:24;6.45;;;3.00;;
56255;SDS011;57229;51.432;-2.598;2023-01-01T04:51:01;8.05;;;3.08;;
56255;SDS011;57229;51.432;-2.598;2023-01-01T04:53:29;6.53;;;2.72;;
56255;SDS011;57229;51.432;-2.598;2023-01-01T04:56:01;7.03;;;2.70;;
56255;SDS011;57229;51.432;-2.598;2023-01-01T04:58:34;7.40;;;3.00;;
56255;SDS011;57229;51.432;-2.598;2023-01-01T05:01:05;3.72;;;2.65;;
56255;SDS011;57229;51.432;-2.598;2023-01-01T05:03:31;6.28;;;2.70;;
56255;SDS011;57229;51.432;-2.598;2023-01-01T05:06:13;7.30;;;2.72;;
56255;SDS011;57229;51.432;-2.598;2023-01-01T05:08:44;8.95;;;2.75;;
56255;SDS011;57229;51.432;-2.598;2023-01-01T05:11:13;5.18;;;2.70;;
56255;SDS011;57229;51.432;-2.598;2023-01-01T05:13:44;6.05;;;2.80;;
56255;SDS011;57229;51.432;-2.598;2023-01-01T05:16:16;20.85;;;2.90;;
56255;SDS011;57229;51.432;-2.598;2023-01-01T05:18:43;4.53;;;2.50;;
56255;SDS011;57229;51.432;-2.598;2023-01-01T05:21:11;6.95;;;2.67;;
56255;SDS011;57229;51.432;-2.598;2023-01-01T05:23:38;7.40;;;2.60;;
56255;SDS011;57229;51.432;-2.598;2023-01-01T05:26:11;7.80;;;3.10;;
56255;SDS011;57229;51.432;-2.598;2023-01-01T05:28:41;5.20;;;2.45;;
56255;SDS011;57229;51.432;-2.598;2023-01-01T05:31:08;4.30;;;2.60;;
56255;SDS011;57229;51.432;-2.598;2023-01-01T05:33:37;6.38;;;2.50;;
56255;SDS011;57229;51.432;-2.598;2023-01-01T05:36:03;6.97;;;2.80;;
56255;SDS011;57229;51.432;-2.598;2023-01-01T05:38:30;5.57;;;2.65;;
56255;SDS011;57229;51.432;-2.598;2023-01-01T05:40:56;3.97;;;2.40;;
56255;SDS011;57229;51.432;-2.598;2023-01-01T05:43:27;4.53;;;2.28;;
56255;SDS011;57229;51.432;-2.598;2023-01-01T05:46:06;5.30;;;2.65;;
56255;SDS011;57229;51.432;-2.598;2023-01-01T05:48:42;4.85;;;2.60;;
56255;SDS011;57229;51.432;-2.598;2023-01-01T05:51:18;9.05;;;2.55;;
56255;SDS011;57229;51.432;-2.598;2023-01-01T05:53:54;5.70;;;2.55;;
56255;SDS011;57229;51.432;-2.598;2023-01-01T05:56:21;5.68;;;2.50;;
56255;SDS011;57229;51.432;-2.598;2023-01-01T05:58:47;6.47;;;2.85;;
56255;SDS011;57229;51.432;-2.598;2023-01-01T06:03:47;3.88;;;2.25;;
56255;SDS011;57229;51.432;-2.598;2023-01-01T06:06:14;6.93;;;2.45;;
56255;SDS011;57229;51.432;-2.598;2023-01-01T06:08:51;4.28;;;2.30;;
56255;SDS011;57229;51.432;-2.598;2023-01-01T06:11:21;9.18;;;2.83;;
56255;SDS011;57229;51.432;-2.598;2023-01-01T06:13:50;5.85;;;2.30;;
56255;SDS011;57229;51.432;-2.598;2023-01-01T06:16:17;4.30;;;2.40;;
56255;SDS011;57229;51.432;-2.598;2023-01-01T06:18:42;6.15;;;2.67;;
56255;SDS011;57229;51.432;-2.598;2023-01-01T06:21:18;4.22;;;2.25;;
56255;SDS011;57229;51.432;-2.598;2023-01-01T06:23:45;5.55;;;2.40;;
56255;SDS011;57229;51.432;-2.598;2023-01-01T06:26:16;5.82;;;2.90;;
56255;SDS011;57229;51.432;-2.598;2023-01-01T06:28:44;7.65;;;2.55;;
56255;SDS011;57229;51.432;-2.598;2023-01-01T06:31:11;5.50;;;2.53;;
56255;SDS011;57229;51.432;-2.598;2023-01-01T06:33:39;7.47;;;2.67;;
56255;SDS011;57229;51.432;-2.598;2023-01-01T06:36:06;6.38;;;2.40;;
56255;SDS011;57229;51.432;-2.598;2023-01-01T06:38:35;4.38;;;2.30;;
56255;SDS011;57229;51.432;-2.598;2023-01-01T06:41:03;4.25;;;2.45;;
56255;SDS011;57229;51.432;-2.598;2023-01-01T06:43:31;4.97;;;2.80;;
56255;SDS011;57229;51.432;-2.598;2023-01-01T06:46:19;6.80;;;2.42;;
56255;SDS011;57229;51.432;-2.598;2023-01-01T06:48:45;6.20;;;2.33;;
56255;SDS011;57229;51.432;-2.598;2023-01-01T06:51:13;5.88;;;2.83;;
56255;SDS011;57229;51.432;-2.598;2023-01-01T06:53:44;4.65;;;2.25;;
56255;SDS011;57229;51.432;-2.598;2023-01-01T06:56:10;3.42;;;2.15;;
56255;SDS011;57229;51.432;-2.598;2023-01-01T06:58:36;5.07;;;2.30;;
56255;SDS011;57229;51.432;-2.598;2023-01-01T07:01:03;5.50;;;2.53;;
56255;SDS011;57229;51.432;-2.598;2023-01-01T07:03:30;4.80;;;2.70;;
56255;SDS011;57229;51.432;-2.598;2023-01-01T07:05:56;6.18;;;2.60;;
56255;SDS011;57229;51.432;-2.598;2023-01-01T07:08:22;3.75;;;2.30;;
56255;SDS011;57229;51.432;-2.598;2023-01-01T07:10:50;7.35;;;2.40;;
56255;SDS011;57229;51.432;-2.598;2023-01-01T07:13:21;6.13;;;2.40;;
56255;SDS011;57229;51.432;-2.598;2023-01-01T07:15:48;5.90;;;2.35;;
56255;SDS011;57229;51.432;-2.598;2023-01-01T07:18:14;7.07;;;2.40;;
56255;SDS011;57229;51.432;-2.598;2023-01-01T07:20:39;7.43;;;2.40;;
56255;SDS011;57229;51.432;-2.598;2023-01-01T07:23:05;6.70;;;2.40;;
56255;SDS011;57229;51.432;-2.598;2023-01-01T07:25:30;7.07;;;2.55;;
56255;SDS011;57229;51.432;-2.598;2023-01-01T07:27:56;8.02;;;2.60;;
56255;SDS011;57229;51.432;-2.598;2023-01-01T07:30:22;8.43;;;2.58;;
56255;SDS011;57229;51.432;-2.598;2023-01-01T07:32:52;6.43;;;2.50;;
56255;SDS011;57229;51.432;-2.598;2023-01-01T07:35:19;7.75;;;2.60;;
56255;SDS011;57229;51.432;-2.598;2023-01-01T07:37:45;8.38;;;2.80;;
56255;SDS011;57229;51.432;-2.598;2023-01-01T07:40:11;11.27;;;2.72;;
56255;SDS011;57229;51.432;-2.598;2023-01-01T07:42:37;5.57;;;2.58;;
56255;SDS011;57229;51.432;-2.598;2023-01-01T07:45:03;9.65;;;2.75;;
56255;SDS011;57229;51.432;-2.598;2023-01-01T07:47:29;8.88;;;2.50;;
56255;SDS011;57229;51.432;-2.598;2023-01-01T07:49:54;9.85;;;3.10;;
56255;SDS011;57229;51.432;-2.598;2023-01-01T07:52:20;8.93;;;2.80;;
56255;SDS011;57229;51.432;-2.598;2023-01-01T07:54:51;6.20;;;2.60;;
56255;SDS011;57229;51.432;-2.598;2023-01-01T07:58:18;10.13;;;3.05;;
56255;SDS011;57229;51.432;-2.598;2023-01-01T08:00:38;11.80;;;2.85;;
56255;SDS011;57229;51.432;-2.598;2023-01-01T08:03:08;6.05;;;2.30;;
56255;SDS011;57229;51.432;-2.598;2023-01-01T08:05:36;11.93;;;3.42;;
56255;SDS011;57229;51.432;-2.598;2023-01-01T08:11:23;6.70;;;2.67;;
56255;SDS011;57229;51.432;-2.598;2023-01-01T08:19:59;12.55;;;2.65;;
56255;SDS011;57229;51.432;-2.598;2023-01-01T08:22:25;6.88;;;2.60;;
56255;SDS011;57229;51.432;-2.598;2023-01-01T08:25:01;8.40;;;2.70;;
56255;SDS011;57229;51.432;-2.598;2023-01-01T08:27:30;6.75;;;2.60;;
56255;SDS011;57229;51.432;-2.598;2023-01-01T08:33:01;8.43;;;2.80;;
56255;SDS011;57229;51.432;-2.598;2023-01-01T08:35:42;8.68;;;2.90;;
56255;SDS011;57229;51.432;-2.598;2023-01-01T08:41:44;9.10;;;3.05;;
56255;SDS011;57229;51.432;-2.598;2023-01-01T08:44:10;7.05;;;2.85;;
56255;SDS011;57229;51.432;-2.598;2023-01-01T08:46:37;8.75;;;3.05;;
56255;SDS011;57229;51.432;-2.598;2023-01-01T08:49:02;7.40;;;2.33;;
56255;SDS011;57229;51.432;-2.598;2023-01-01T08:51:28;7.93;;;2.83;;
56255;SDS011;57229;51.432;-2.598;2023-01-01T08:53:54;8.45;;;2.85;;
56255;SDS011;57229;51.432;-2.598;2023-01-01T08:56:24;8.30;;;2.72;;
56255;SDS011;57229;51.432;-2.598;2023-01-01T08:58:49;11.63;;;3.17;;
56255;SDS011;57229;51.432;-2.598;2023-01-01T09:01:15;6.55;;;2.47;;
56255;SDS011;57229;51.432;-2.598;2023-01-01T09:03:41;5.03;;;2.38;;
56255;SDS011;57229;51.432;-2.598;2023-01-01T09:06:07;3.95;;;2.35;;
56255;SDS011;57229;51.432;-2.598;2023-01-01T09:08:32;6.70;;;2.30;;
56255;SDS011;57229;51.432;-2.598;2023-01-01T09:10:59;5.50;;;2.72;;
56255;SDS011;57229;51.432;-2.598;2023-01-01T09:16:26;6.97;;;2.60;;
56255;SDS011;57229;51.432;-2.598;2023-01-01T09:18:53;5.10;;;2.45;;
56255;SDS011;57229;51.432;-2.598;2023-01-01T09:21:19;8.73;;;2.80;;
56255;SDS011;57229;51.432;-2.598;2023-01-01T09:23:45;4.82;;;2.40;;
56255;SDS011;57229;51.432;-2.598;2023-01-01T09:26:11;10.15;;;3.10;;
56255;SDS011;57229;51.432;-2.598;2023-01-01T09:28:37;7.95;;;3.28;;
56255;SDS011;57229;51.432;-2.598;2023-01-01T09:31:06;9.90;;;2.90;;
56255;SDS011;57229;51.432;-2.598;2023-01-01T09:33:41;10.70;;;2.95;;
56255;SDS011;57229;51.432;-2.598;2023-01-01T09:36:40;8.32;;;3.00;;
56255;SDS011;57229;51.432;-2.598;2023-01-01T09:39:45;13.07;;;3.33;;
56255;SDS011;57229;51.432;-2.598;2023-01-01T09:42:06;7.43;;;3.25;;
56255;SDS011;57229;51.432;-2.598;2023-01-01T09:48:04;11.15;;;3.22;;
56255;SDS011;57229;51.432;-2.598;2023-01-01T09:53:17;11.05;;;3.15;;
56255;SDS011;57229;51.432;-2.598;2023-01-01T09:55:57;10.30;;;3.10;;
56255;SDS011;57229;51.432;-2.598;2023-01-01T09:58:35;11.75;;;3.63;;
56255;SDS011;57229;51.432;-2.598;2023-01-01T10:01:33;9.95;;;2.90;;
56255;SDS011;57229;51.432;-2.598;2023-01-01T10:07:54;7.82;;;3.42;;
56255;SDS011;57229;51.432;-2.598;2023-01-01T10:13:26;13.38;;;3.15;;
56255;SDS011;57229;51.432;-2.598;2023-01-01T10:22:43;8.15;;;2.90;;
56255;SDS011;57229;51.432;-2.598;2023-01-01T10:25:27;9.48;;;2.97;;
56255;SDS011;57229;51.432;-2.598;2023-01-01T10:32:18;7.25;;;2.80;;
56255;SDS011;57229;51.432;-2.598;2023-01-01T10:34:46;7.95;;;3.22;;
56255;SDS011;57229;51.432;-2.598;2023-01-01T10:37:14;15.30;;;3.70;;
56255;SDS011;57229;51.432;-2.598;2023-01-01T10:39:42;8.60;;;3.03;;
56255;SDS011;57229;51.432;-2.598;2023-01-01T10:42:13;8.55;;;3.20;;
56255;SDS011;57229;51.432;-2.598;2023-01-01T10:44:43;8.65;;;3.22;;
56255;SDS011;57229;51.432;-2.598;2023-01-01T10:51:15;5.93;;;3.03;;
56255;SDS011;57229;51.432;-2.598;2023-01-01T11:00:40;8.48;;;3.70;;
56255;SDS011;57229;51.432;-2.598;2023-01-01T11:03:17;9.07;;;3.83;;
56255;SDS011;57229;51.432;-2.598;2023-01-01T11:12:16;8.88;;;3.85;;
56255;SDS011;57229;51.432;-2.598;2023-01-01T11:18:09;19.13;;;5.10;;
56255;SDS011;57229;51.432;-2.598;2023-01-01T11:20:41;16.20;;;5.10;;
56255;SDS011;57229;51.432;-2.598;2023-01-01T11:23:28;17.02;;;5.93;;
56255;SDS011;57229;51.432;-2.598;2023-01-01T11:26:37;12.60;;;5.63;;
56255;SDS011;57229;51.432;-2.598;2023-01-01T11:31:42;15.65;;;5.80;;
56255;SDS011;57229;51.432;-2.598;2023-01-01T11:34:23;20.38;;;5.80;;
56255;SDS011;57229;51.432;-2.598;2023-01-01T11:39:54;15.48;;;5.85;;
56255;SDS011;57229;51.432;-2.598;2023-01-01T11:42:31;13.80;;;5.78;;
56255;SDS011;57229;51.432;-2.598;2023-01-01T11:45:00;12.30;;;4.95;;
56255;SDS011;57229;51.432;-2.598;2023-01-01T11:50:38;14.60;;;5.57;;
56255;SDS011;57229;51.432;-2.598;2023-01-01T11:56:11;12.02;;;5.13;;
56255;SDS011;57229;51.432;-2.598;2023-01-01T11:58:52;13.98;;;5.38;;
56255;SDS011;57229;51.432;-2.598;2023-01-01T12:01:24;13.95;;;5.82;;
56255;SDS011;57229;51.432;-2.598;2023-01-01T12:07:22;12.57;;;5.13;;
56255;SDS011;57229;51.432;-2.598;2023-01-01T12:10:26;12.75;;;5.30;;
56255;SDS011;57229;51.432;-2.598;2023-01-01T12:12:56;10.15;;;4.68;;
56255;SDS011;57229;51.432;-2.598;2023-01-01T12:15:45;14.38;;;5.15;;
56255;SDS011;57229;51.432;-2.598;2023-01-01T12:18:24;9.63;;;4.65;;
56255;SDS011;57229;51.432;-2.598;2023-01-01T12:21:24;11.70;;;4.60;;
56255;SDS011;57229;51.432;-2.598;2023-01-01T12:24:42;11.73;;;4.32;;
56255;SDS011;57229;51.432;-2.598;2023-01-01T12:29:58;10.68;;;4.43;;
56255;SDS011;57229;51.432;-2.598;2023-01-01T12:38:46;11.70;;;4.93;;
56255;SDS011;57229;51.432;-2.598;2023-01-01T12:44:32;8.25;;;4.10;;
56255;SDS011;57229;51.432;-2.598;2023-01-01T12:47:31;11.82;;;4.10;;
56255;SDS011;57229;51.432;-2.598;2023-01-01T13:03:06;10.98;;;4.00;;
56255;SDS011;57229;51.432;-2.598;2023-01-01T13:09:12;9.48;;;3.70;;
56255;SDS011;57229;51.432;-2.598;2023-01-01T13:11:42;8.57;;;4.00;;
56255;SDS011;57229;51.432;-2.598;2023-01-01T13:14:14;9.70;;;3.83;;
56255;SDS011;57229;51.432;-2.598;2023-01-01T13:16:40;14.93;;;3.78;;
56255;SDS011;57229;51.432;-2.598;2023-01-01T13:25:05;10.07;;;3.88;;
56255;SDS011;57229;51.432;-2.598;2023-01-01T13:45:29;14.25;;;4.10;;
56255;SDS011;57229;51.432;-2.598;2023-01-01T14:03:02;12.98;;;3.95;;
56255;SDS011;57229;51.432;-2.598;2023-01-01T14:05:51;9.20;;;3.60;;
56255;SDS011;57229;51.432;-2.598;2023-01-01T14:13:48;11.07;;;4.68;;
56255;SDS011;57229;51.432;-2.598;2023-01-01T14:19:12;12.15;;;4.03;;
56255;SDS011;57229;51.432;-2.598;2023-01-01T14:21:41;12.02;;;3.90;;
56255;SDS011;57229;51.432;-2.598;2023-01-01T14:25:19;16.10;;;4.13;;
56255;SDS011;57229;51.432;-2.598;2023-01-01T14:31:42;10.23;;;4.10;;
56255;SDS011;57229;51.432;-2.598;2023-01-01T14:34:21;18.00;;;4.63;;
56255;SDS011;57229;51.432;-2.598;2023-01-01T14:36:53;12.18;;;4.15;;
56255;SDS011;57229;51.432;-2.598;2023-01-01T14:39:28;11.73;;;4.20;;
56255;SDS011;57229;51.432;-2.598;2023-01-01T14:41:58;16.05;;;4.35;;
56255;SDS011;57229;51.432;-2.598;2023-01-01T14:45:18;10.63;;;4.20;;
56255;SDS011;57229;51.432;-2.598;2023-01-01T14:47:49;13.00;;;4.70;;
56255;SDS011;57229;51.432;-2.598;2023-01-01T14:57:24;28.85;;;5.40;;
56255;SDS011;57229;51.432;-2.598;2023-01-01T15:00:03;17.63;;;5.32;;
56255;SDS011;57229;51.432;-2.598;2023-01-01T15:06:23;20.13;;;5.53;;
56255;SDS011;57229;51.432;-2.598;2023-01-01T15:08:59;26.23;;;6.70;;
56255;SDS011;57229;51.432;-2.598;2023-01-01T15:11:24;22.02;;;6.32;;
56255;SDS011;57229;51.432;-2.598;2023-01-01T15:13:55;20.70;;;7.10;;
56255;SDS011;57229;51.432;-2.598;2023-01-01T15:16:25;22.25;;;6.35;;
56255;SDS011;57229;51.432;-2.598;2023-01-01T15:18:52;26.08;;;6.72;;
56255;SDS011;57229;51.432;-2.598;2023-01-01T15:26:43;28.88;;;7.78;;
56255;SDS011;57229;51.432;-2.598;2023-01-01T15:32:09;28.40;;;6.80;;
56255;SDS011;57229;51.432;-2.598;2023-01-01T15:38:14;21.95;;;6.28;;
56255;SDS011;57229;51.432;-2.598;2023-01-01T15:40:45;21.85;;;6.43;;
56255;SDS011;57229;51.432;-2.598;2023-01-01T15:43:19;23.98;;;6.10;;
56255;SDS011;57229;51.432;-2.598;2023-01-01T15:46:10;26.17;;;6.75;;
56255;SDS011;57229;51.432;-2.598;2023-01-01T15:48:47;26.60;;;6.70;;
56255;SDS011;57229;51.432;-2.598;2023-01-01T15:51:15;19.48;;;6.07;;
56255;SDS011;57229;51.432;-2.598;2023-01-01T15:53:57;23.65;;;6.35;;
56255;SDS011;57229;51.432;-2.598;2023-01-01T15:59:36;18.17;;;5.55;;
56255;SDS011;57229;51.432;-2.598;2023-01-01T16:02:03;29.60;;;6.28;;
56255;SDS011;57229;51.432;-2.598;2023-01-01T16:04:36;30.42;;;6.28;;
56255;SDS011;57229;51.432;-2.598;2023-01-01T16:07:04;22.73;;;5.93;;
56255;SDS011;57229;51.432;-2.598;2023-01-01T16:09:30;21.90;;;6.03;;
56255;SDS011;57229;51.432;-2.598;2023-01-01T16:11:59;31.35;;;6.85;;
56255;SDS011;57229;51.432;-2.598;2023-01-01T16:20:32;18.27;;;5.43;;
56255;SDS011;57229;51.432;-2.598;2023-01-01T16:23:12;21.42;;;5.60;;
56255;SDS011;57229;51.432;-2.598;2023-01-01T16:25:42;21.27;;;5.43;;
56255;SDS011;57229;51.432;-2.598;2023-01-01T16:28:08;24.27;;;5.45;;
56255;SDS011;57229;51.432;-2.598;2023-01-01T16:37:07;20.83;;;5.10;;
56255;SDS011;57229;51.432;-2.598;2023-01-01T16:39:52;23.65;;;5.28;;
56255;SDS011;57229;51.432;-2.598;2023-01-01T16:42:28;22.60;;;5.10;;
56255;SDS011;57229;51.432;-2.598;2023-01-01T16:44:54;38.50;;;5.95;;
56255;SDS011;57229;51.432;-2.598;2023-01-01T16:47:20;38.17;;;5.53;;
56255;SDS011;57229;51.432;-2.598;2023-01-01T16:49:46;33.08;;;5.47;;
56255;SDS011;57229;51.432;-2.598;2023-01-01T16:52:12;30.73;;;5.93;;
56255;SDS011;57229;51.432;-2.598;2023-01-01T16:54:39;32.50;;;5.60;;
56255;SDS011;57229;51.432;-2.598;2023-01-01T16:57:05;17.48;;;4.75;;
56255;SDS011;57229;51.432;-2.598;2023-01-01T16:59:30;19.40;;;5.28;;
56255;SDS011;57229;51.432;-2.598;2023-01-01T17:01:56;11.27;;;4.22;;
56255;SDS011;57229;51.432;-2.598;2023-01-01T17:04:22;17.95;;;4.90;;
56255;SDS011;57229;51.432;-2.598;2023-01-01T17:06:52;17.20;;;4.40;;
56255;SDS011;57229;51.432;-2.598;2023-01-01T17:09:17;11.75;;;4.00;;
56255;SDS011;57229;51.432;-2.598;2023-01-01T17:11:43;20.02;;;4.32;;
56255;SDS011;57229;51.432;-2.598;2023-01-01T17:20:28;12.32;;;3.55;;
56255;SDS011;57229;51.432;-2.598;2023-01-01T17:22:54;9.30;;;3.85;;
56255;SDS011;57229;51.432;-2.598;2023-01-01T17:25:20;12.77;;;3.67;;
56255;SDS011;57229;51.432;-2.598;2023-01-01T17:27:46;12.82;;;4.13;;
56255;SDS011;57229;51.432;-2.598;2023-01-01T17:30:12;10.35;;;3.83;;
56255;SDS011;57229;51.432;-2.598;2023-01-01T17:32:38;13.20;;;4.20;;
56255;SDS011;57229;51.432;-2.598;2023-01-01T17:35:04;9.88;;;3.60;;
56255;SDS011;57229;51.432;-2.598;2023-01-01T17:37:31;6.95;;;3.50;;
56255;SDS011;57229;51.432;-2.598;2023-01-01T17:39:57;10.60;;;3.20;;
56255;SDS011;57229;51.432;-2.598;2023-01-01T17:42:23;7.03;;;3.20;;
56255;SDS011;57229;51.432;-2.598;2023-01-01T17:44:49;6.72;;;3.25;;
56255;SDS011;57229;51.432;-2.598;2023-01-01T17:47:15;9.60;;;3.47;;
56255;SDS011;57229;51.432;-2.598;2023-01-01T17:49:41;10.05;;;3.22;;
56255;SDS011;57229;51.432;-2.598;2023-01-01T17:52:08;7.40;;;3.10;;
56255;SDS011;57229;51.432;-2.598;2023-01-01T17:54:34;5.35;;;2.80;;
56255;SDS011;57229;51.432;-2.598;2023-01-01T17:57:00;7.82;;;3.10;;
56255;SDS011;57229;51.432;-2.598;2023-01-01T17:59:29;7.45;;;3.13;;
56255;SDS011;57229;51.432;-2.598;2023-01-01T18:01:56;7.20;;;3.00;;
56255;SDS011;57229;51.432;-2.598;2023-01-01T18:04:22;7.50;;;2.70;;
56255;SDS011;57229;51.432;-2.598;2023-01-01T18:06:48;9.60;;;3.10;;
56255;SDS011;57229;51.432;-2.598;2023-01-01T18:09:14;6.70;;;3.17;;
56255;SDS011;57229;51.432;-2.598;2023-01-01T18:11:42;7.15;;;2.80;;
56255;SDS011;57229;51.432;-2.598;2023-01-01T18:14:08;5.60;;;3.22;;
56255;SDS011;57229;51.432;-2.598;2023-01-01T18:16:35;8.73;;;3.35;;
56255;SDS011;57229;51.432;-2.598;2023-01-01T18:19:02;7.25;;;3.25;;
56255;SDS011;57229;51.432;-2.598;2023-01-01T18:21:29;12.00;;;3.40;;
56255;SDS011;57229;51.432;-2.598;2023-01-01T18:23:56;7.47;;;3.25;;
56255;SDS011;57229;51.432;-2.598;2023-01-01T18:26:24;10.00;;;3.45;;
56255;SDS011;57229;51.432;-2.598;2023-01-01T18:28:59;8.98;;;3.60;;
56255;SDS011;57229;51.432;-2.598;2023-01-01T18:31:27;9.80;;;3.70;;
56255;SDS011;57229;51.432;-2.598;2023-01-01T18:33:56;9.23;;;3.55;;
56255;SDS011;57229;51.432;-2.598;2023-01-01T18:36:23;11.13;;;4.07;;
56255;SDS011;57229;51.432;-2.598;2023-01-01T18:38:58;10.68;;;4.25;;
56255;SDS011;57229;51.432;-2.598;2023-01-01T18:41:34;12.00;;;4.90;;
56255;SDS011;57229;51.432;-2.598;2023-01-01T18:44:22;15.23;;;5.18;;
56255;SDS011;57229;51.432;-2.598;2023-01-01T18:47:01;14.77;;;5.22;;
56255;SDS011;57229;51.432;-2.598;2023-01-01T18:49:40;15.32;;;5.20;;
56255;SDS011;57229;51.432;-2.598;2023-01-01T18:52:19;11.93;;;4.43;;
56255;SDS011;57229;51.432;-2.598;2023-01-01T18:54:49;14.52;;;5.63;;
56255;SDS011;57229;51.432;-2.598;2023-01-01T18:57:25;12.73;;;4.65;;
56255;SDS011;57229;51.432;-2.598;2023-01-01T18:59:51;15.80;;;4.93;;
56255;SDS011;57229;51.432;-2.598;2023-01-01T19:02:27;10.27;;;4.85;;
56255;SDS011;57229;51.432;-2.598;2023-01-01T19:05:14;12.18;;;4.68;;
56255;SDS011;57229;51.432;-2.598;2023-01-01T19:13:38;11.07;;;4.38;;
56255;SDS011;57229;51.432;-2.598;2023-01-01T19:18:37;15.63;;;4.60;;
56255;SDS011;57229;51.432;-2.598;2023-01-01T19:23:37;15.15;;;4.15;;
56255;SDS011;57229;51.432;-2.598;2023-01-01T19:26:07;9.75;;;4.13;;